createdAt,value
2018-01-25T00:01:23.526Z,11.30
2018-01-25T00:03:51.026Z,11.20
2018-01-25T00:06:18.556Z,11.30
2018-01-25T00:08:46.063Z,11.30
2018-01-25T00:11:14.350Z,11.20
2018-01-25T00:13:42.616Z,11.20
2018-01-25T00:16:10.907Z,11.10
2018-01-25T00:18:39.175Z,11.10
2018-01-25T00:21:07.462Z,11.10
2018-01-25T00:23:34.994Z,11.00
2018-01-25T00:26:02.498Z,11.10
2018-01-25T00:28:30.027Z,11.00
2018-01-25T00:30:58.299Z,11.00
2018-01-25T00:33:26.590Z,10.90
2018-01-25T00:35:54.855Z,10.80
2018-01-25T00:38:23.152Z,10.70
2018-01-25T00:40:50.676Z,10.70
2018-01-25T00:43:18.185Z,10.70
2018-01-25T00:45:45.722Z,10.60
2018-01-25T00:48:13.259Z,10.60
2018-01-25T00:50:41.533Z,10.10
2018-01-25T00:53:09.036Z,10.10
2018-01-25T00:55:36.563Z,9.90
2018-01-25T00:58:04.841Z,9.60
2018-01-25T01:00:33.137Z,9.40
2018-01-25T01:03:00.670Z,9.40
2018-01-25T01:05:28.934Z,9.10
2018-01-25T01:07:56.548Z,9.10
2018-01-25T01:10:24.044Z,9.00
2018-01-25T01:12:51.539Z,9.00
2018-01-25T01:15:19.943Z,8.80
2018-01-25T01:17:47.466Z,8.80
2018-01-25T01:20:15.727Z,8.70
2018-01-25T01:22:43.251Z,8.60
2018-01-25T01:25:10.748Z,8.60
2018-01-25T01:27:38.270Z,8.50
2018-01-25T01:30:05.766Z,8.50
2018-01-25T01:32:33.295Z,8.40
2018-01-25T01:35:00.788Z,8.40
2018-01-25T01:37:29.075Z,8.40
2018-01-25T01:39:57.343Z,8.30
2018-01-25T01:42:25.638Z,8.30
2018-01-25T01:44:53.923Z,8.30
2018-01-25T01:47:21.418Z,8.30
2018-01-25T01:49:48.938Z,8.30
2018-01-25T01:52:16.440Z,8.30
2018-01-25T01:54:43.962Z,8.30
2018-01-25T01:57:11.492Z,8.30
2018-01-25T01:59:39.754Z,8.30
2018-01-25T02:02:07.284Z,8.30
2018-01-25T02:04:34.784Z,8.20
2018-01-25T02:07:03.091Z,8.20
2018-01-25T02:09:30.587Z,8.10
2018-01-25T02:11:58.082Z,8.10
2018-01-25T02:14:26.373Z,8.00
2018-01-25T02:16:54.655Z,8.10
2018-01-25T02:19:22.151Z,8.00
2018-01-25T02:21:49.683Z,8.00
2018-01-25T02:24:17.183Z,8.10
2018-01-25T02:26:44.701Z,8.00
2018-01-25T02:29:12.231Z,8.00
2018-01-25T02:31:40.497Z,7.80
2018-01-25T02:34:08.019Z,7.80
2018-01-25T02:36:35.538Z,7.80
2018-01-25T02:39:03.804Z,7.70
2018-01-25T02:41:32.108Z,7.70
2018-01-25T02:43:59.611Z,7.70
2018-01-25T02:46:27.107Z,7.60
2018-01-25T02:48:55.401Z,7.60
2018-01-25T02:51:22.903Z,7.50
2018-01-25T02:53:50.423Z,7.50
2018-01-25T02:56:17.919Z,7.50
2018-01-25T02:58:45.440Z,7.50
2018-01-25T03:01:12.939Z,7.60
2018-01-25T03:03:40.460Z,7.60
2018-01-25T03:06:07.990Z,7.50
2018-01-25T03:08:36.258Z,7.50
2018-01-25T03:11:04.569Z,7.50
2018-01-25T03:13:32.070Z,7.50
2018-01-25T03:15:59.570Z,7.50
2018-01-25T03:18:27.090Z,7.50
2018-01-25T03:20:54.591Z,7.40
2018-01-25T03:23:22.137Z,7.50
2018-01-25T03:25:50.395Z,7.50
2018-01-25T03:28:17.890Z,7.50
2018-01-25T03:30:45.411Z,7.50
2018-01-25T03:33:12.917Z,7.60
2018-01-25T03:35:40.444Z,7.60
2018-01-25T03:38:08.726Z,7.70
2018-01-25T03:40:37.011Z,7.70
2018-01-25T03:43:05.302Z,7.80
2018-01-25T03:45:32.812Z,7.80
2018-01-25T03:48:00.334Z,7.80
2018-01-25T03:50:27.827Z,7.70
2018-01-25T03:52:55.354Z,7.70
2018-01-25T03:55:22.873Z,7.70
2018-01-25T03:57:51.140Z,7.70
2018-01-25T04:00:19.389Z,7.80
2018-01-25T04:02:47.707Z,7.80
2018-01-25T04:05:16.007Z,7.80
2018-01-25T04:07:43.514Z,7.80
2018-01-25T04:10:11.010Z,7.80
2018-01-25T04:12:38.534Z,7.80
2018-01-25T04:15:06.031Z,7.80
2018-01-25T04:17:33.550Z,7.90
2018-01-25T04:20:01.050Z,7.90
2018-01-25T04:22:28.592Z,8.10
2018-01-25T04:24:56.857Z,8.00
2018-01-25T04:27:25.126Z,8.10
2018-01-25T04:29:52.657Z,8.10
2018-01-25T04:32:20.161Z,8.10
2018-01-25T04:34:48.451Z,8.20
2018-01-25T04:37:15.947Z,8.20
2018-01-25T04:39:43.469Z,8.20
2018-01-25T04:42:10.967Z,8.20
2018-01-25T04:44:39.263Z,8.20
2018-01-25T04:47:06.762Z,8.20
2018-01-25T04:49:34.378Z,8.20
2018-01-25T04:52:01.876Z,8.20
2018-01-25T04:54:30.138Z,8.20
2018-01-25T04:56:58.436Z,8.10
2018-01-25T04:59:25.938Z,8.10
2018-01-25T05:01:53.462Z,8.10
2018-01-25T05:04:20.925Z,8.10
2018-01-25T05:06:48.481Z,8.10
2018-01-25T05:09:15.984Z,8.20
2018-01-25T05:11:44.289Z,8.20
2018-01-25T05:14:12.558Z,8.20
2018-01-25T05:16:40.834Z,8.10
2018-01-25T05:19:09.127Z,8.10
2018-01-25T05:21:37.391Z,8.10
2018-01-25T05:24:05.809Z,8.10
2018-01-25T05:26:33.320Z,8.10
2018-01-25T05:29:00.815Z,8.10
2018-01-25T05:31:29.101Z,8.10
2018-01-25T05:33:56.597Z,8.10
2018-01-25T05:36:24.131Z,8.10
2018-01-25T05:38:51.630Z,8.20
2018-01-25T05:41:19.239Z,8.10
2018-01-25T05:43:46.755Z,8.10
2018-01-25T05:46:14.253Z,8.10
2018-01-25T05:48:41.775Z,8.20
2018-01-25T05:51:10.067Z,8.10
2018-01-25T05:53:37.576Z,8.10
2018-01-25T05:56:05.109Z,8.00
2018-01-25T05:58:32.613Z,8.10
2018-01-25T06:01:00.140Z,8.10
2018-01-25T06:03:27.635Z,8.10
2018-01-25T06:05:55.156Z,8.10
2018-01-25T06:08:22.655Z,8.00
2018-01-25T06:10:50.186Z,8.00
2018-01-25T06:13:18.590Z,7.90
2018-01-25T06:15:46.130Z,7.90
2018-01-25T06:18:13.631Z,7.90
2018-01-25T06:20:41.898Z,7.90
2018-01-25T06:23:10.196Z,7.90
2018-01-25T06:25:37.697Z,7.90
2018-01-25T06:28:06.006Z,7.90
2018-01-25T06:30:34.276Z,7.80
2018-01-25T06:33:01.795Z,7.80
2018-01-25T06:35:29.296Z,7.90
2018-01-25T06:37:56.849Z,7.80
2018-01-25T06:40:31.281Z,7.80
2018-01-25T06:42:59.599Z,7.80
2018-01-25T06:45:27.094Z,7.80
2018-01-25T06:47:54.583Z,7.80
2018-01-25T06:50:22.889Z,7.80
2018-01-25T06:52:50.382Z,7.80
2018-01-25T06:55:17.907Z,7.80
2018-01-25T06:57:45.406Z,7.80
2018-01-25T07:00:12.923Z,7.70
2018-01-25T07:02:40.427Z,7.80
2018-01-25T07:05:07.946Z,7.80
2018-01-25T07:07:35.451Z,7.80
2018-01-25T07:10:02.976Z,7.80
2018-01-25T07:12:30.494Z,7.80
2018-01-25T07:14:58.758Z,7.80
2018-01-25T07:17:27.053Z,7.80
2018-01-25T07:19:55.354Z,7.80
2018-01-25T07:22:22.862Z,7.80
2018-01-25T07:24:50.361Z,7.80
2018-01-25T07:27:17.883Z,7.80
2018-01-25T07:29:45.376Z,7.80
2018-01-25T07:32:12.899Z,7.60
2018-01-25T07:34:40.394Z,7.60
2018-01-25T07:37:07.910Z,7.60
2018-01-25T07:39:35.430Z,7.60
2018-01-25T07:42:02.951Z,7.60
2018-01-25T07:44:31.210Z,7.60
2018-01-25T07:46:58.739Z,7.60
2018-01-25T07:49:26.234Z,7.70
2018-01-25T07:51:54.529Z,7.80
2018-01-25T07:54:23.734Z,7.70
2018-01-25T07:56:51.271Z,7.70
2018-01-25T07:59:19.547Z,7.70
2018-01-25T08:01:47.818Z,7.70
2018-01-25T08:04:15.338Z,7.70
2018-01-25T08:06:42.836Z,7.80
2018-01-25T08:09:10.378Z,7.70
2018-01-25T08:11:37.878Z,7.80
2018-01-25T08:14:06.147Z,7.90
2018-01-25T08:16:40.088Z,7.90
2018-01-25T08:19:07.630Z,7.90
2018-01-25T08:21:35.134Z,7.90
2018-01-25T08:24:02.642Z,7.80
2018-01-25T08:26:30.176Z,7.80
2018-01-25T08:28:57.679Z,7.80
2018-01-25T08:31:25.202Z,7.80
2018-01-25T08:33:53.490Z,7.80
2018-01-25T08:36:21.779Z,7.80
2018-01-25T08:38:49.303Z,7.80
2018-01-25T08:41:16.835Z,7.80
2018-01-25T08:43:44.371Z,7.80
2018-01-25T08:46:11.875Z,7.90
2018-01-25T08:48:39.418Z,7.80
2018-01-25T08:51:06.918Z,7.90
2018-01-25T08:53:35.186Z,7.80
2018-01-25T08:56:03.487Z,7.80
2018-01-25T08:58:30.998Z,7.80
2018-01-25T09:00:58.499Z,7.90
2018-01-25T09:03:26.025Z,8.10
2018-01-25T09:05:53.534Z,8.10
2018-01-25T09:08:21.070Z,8.10
2018-01-25T09:10:48.599Z,8.10
2018-01-25T09:13:16.099Z,8.20
2018-01-25T09:15:43.622Z,8.20
2018-01-25T09:18:11.128Z,8.30
2018-01-25T09:20:38.666Z,8.30
2018-01-25T09:23:06.926Z,8.30
2018-01-25T09:25:35.222Z,8.30
2018-01-25T09:28:03.536Z,8.30
2018-01-25T09:30:31.055Z,8.30
2018-01-25T09:32:59.351Z,8.40
2018-01-25T09:35:26.852Z,8.40
2018-01-25T09:37:54.479Z,8.40
2018-01-25T09:40:21.978Z,8.40
2018-01-25T09:42:49.476Z,8.50
2018-01-25T09:45:17.006Z,8.50
2018-01-25T09:47:44.507Z,8.60
2018-01-25T09:50:12.035Z,8.60
2018-01-25T09:52:40.311Z,8.60
2018-01-25T09:55:08.628Z,8.50
2018-01-25T09:57:36.127Z,8.50
2018-01-25T10:00:03.660Z,8.50
2018-01-25T10:02:31.159Z,8.50
2018-01-25T10:04:59.507Z,8.60
2018-01-25T10:07:26.972Z,8.60
2018-01-25T10:09:54.510Z,8.60
2018-01-25T10:12:22.019Z,8.60
2018-01-25T10:14:50.311Z,8.70
2018-01-25T10:17:17.814Z,8.70
2018-01-25T10:19:45.330Z,8.70
2018-01-25T10:22:12.826Z,8.80
2018-01-25T10:24:40.359Z,8.80
2018-01-25T10:27:07.863Z,8.70
2018-01-25T10:29:35.360Z,8.70
2018-01-25T10:32:03.660Z,8.70
2018-01-25T10:34:31.160Z,8.70
2018-01-25T10:36:58.679Z,8.90
2018-01-25T10:39:26.179Z,8.80
2018-01-25T10:41:53.717Z,8.90
2018-01-25T10:44:21.218Z,8.80
2018-01-25T10:46:49.478Z,9.00
2018-01-25T10:49:16.999Z,9.00
2018-01-25T10:51:44.490Z,9.00
2018-01-25T10:54:12.015Z,9.00
2018-01-25T10:56:39.511Z,9.10
2018-01-25T10:59:07.038Z,9.00
2018-01-25T11:01:40.150Z,9.10
2018-01-25T11:04:07.669Z,9.10
2018-01-25T11:06:35.206Z,9.10
2018-01-25T11:09:03.464Z,9.20
2018-01-25T11:11:31.851Z,9.20
2018-01-25T11:14:00.118Z,9.20
2018-01-25T11:16:27.614Z,9.20
2018-01-25T11:18:55.139Z,9.20
2018-01-25T11:21:23.435Z,9.30
2018-01-25T11:23:50.944Z,9.40
2018-01-25T11:26:18.490Z,9.30
2018-01-25T11:28:45.988Z,9.30
2018-01-25T11:31:13.485Z,9.30
2018-01-25T11:33:41.012Z,9.40
2018-01-25T11:36:09.274Z,9.40
2018-01-25T11:38:36.798Z,9.40
2018-01-25T11:41:04.287Z,9.30
2018-01-25T11:43:31.806Z,9.30
2018-01-25T11:45:59.331Z,9.40
2018-01-25T11:48:27.587Z,9.40
2018-01-25T11:50:55.131Z,9.40
2018-01-25T11:53:22.642Z,9.50
2018-01-25T11:55:50.178Z,9.50
2018-01-25T11:58:18.440Z,9.50
2018-01-25T12:00:45.947Z,9.50
2018-01-25T12:03:13.560Z,9.50
2018-01-25T12:05:41.059Z,9.50
2018-01-25T12:08:08.550Z,9.50
2018-01-25T12:10:36.075Z,9.50
2018-01-25T12:13:03.580Z,9.50
2018-01-25T12:15:31.115Z,9.40
2018-01-25T12:17:58.627Z,9.50
2018-01-25T12:20:26.895Z,9.50
2018-01-25T12:22:54.421Z,9.50
2018-01-25T12:25:21.922Z,9.40
2018-01-25T12:27:50.233Z,9.50
2018-01-25T12:30:17.740Z,9.50
2018-01-25T12:32:45.256Z,9.50
2018-01-25T12:35:12.790Z,9.60
2018-01-25T12:37:41.076Z,9.70
2018-01-25T12:40:08.580Z,9.70
2018-01-25T12:42:36.099Z,9.70
2018-01-25T12:45:03.599Z,9.80
2018-01-25T12:47:31.132Z,9.80
2018-01-25T12:49:58.631Z,9.60
2018-01-25T12:52:26.138Z,9.70
2018-01-25T12:54:53.667Z,9.60
2018-01-25T12:57:21.922Z,9.70
2018-01-25T12:59:49.449Z,9.60
2018-01-25T13:02:16.958Z,9.70
2018-01-25T13:04:45.254Z,9.50
2018-01-25T13:07:12.766Z,9.50
2018-01-25T13:09:40.339Z,9.60
2018-01-25T13:12:07.867Z,9.60
2018-01-25T13:14:35.402Z,9.70
2018-01-25T13:17:02.904Z,9.70
2018-01-25T13:19:30.434Z,9.80
2018-01-25T13:21:57.954Z,9.80
2018-01-25T13:24:26.218Z,9.70
2018-01-25T13:26:54.511Z,9.80
2018-01-25T13:29:22.778Z,9.80
2018-01-25T13:31:51.071Z,9.70
2018-01-25T13:34:19.334Z,9.80
2018-01-25T13:36:47.627Z,9.70
2018-01-25T13:39:15.120Z,9.70
2018-01-25T13:41:42.622Z,9.70
2018-01-25T13:44:10.908Z,9.60
2018-01-25T13:46:39.180Z,9.70
2018-01-25T13:49:07.467Z,9.70
2018-01-25T13:51:35.733Z,9.70
2018-01-25T13:54:04.026Z,9.60
2018-01-25T13:56:31.522Z,9.60
2018-01-25T13:58:59.047Z,9.60
2018-01-25T14:01:26.542Z,9.60
2018-01-25T14:06:47.065Z,9.70
2018-01-25T14:09:14.567Z,9.70
2018-01-25T14:11:42.862Z,9.50
2018-01-25T14:14:10.371Z,9.50
2018-01-25T14:16:37.924Z,9.40
2018-01-25T14:19:05.433Z,9.30
2018-01-25T14:21:32.946Z,9.30
2018-01-25T14:24:00.483Z,9.30
2018-01-25T14:26:27.976Z,9.30
2018-01-25T14:28:55.515Z,9.30
2018-01-25T14:31:23.016Z,9.20
2018-01-25T14:33:51.264Z,9.30
2018-01-25T14:36:19.584Z,9.30
2018-01-25T14:38:47.082Z,9.30
2018-01-25T14:41:14.611Z,9.20
2018-01-25T14:43:42.106Z,8.90
2018-01-25T14:46:09.629Z,8.60
2018-01-25T14:48:37.206Z,8.40
2018-01-25T14:51:04.679Z,8.30
2018-01-25T14:53:32.205Z,8.20
2018-01-25T14:55:59.712Z,8.00
2018-01-25T14:58:27.240Z,7.90
2018-01-25T15:00:54.739Z,7.90
2018-01-25T15:03:22.275Z,7.80
2018-01-25T15:05:49.774Z,7.80
2018-01-25T15:08:18.072Z,7.80
2018-01-25T15:10:45.575Z,7.80
2018-01-25T15:13:13.099Z,7.80
2018-01-25T15:15:40.603Z,7.80
2018-01-25T15:18:08.139Z,7.80
2018-01-25T15:20:35.639Z,7.90
2018-01-25T15:23:03.937Z,7.80
2018-01-25T15:25:37.050Z,7.80
2018-01-25T15:28:04.560Z,7.70
2018-01-25T15:30:32.855Z,7.60
2018-01-25T15:33:01.122Z,7.60
2018-01-25T15:35:29.428Z,7.60
2018-01-25T15:37:56.932Z,7.60
2018-01-25T15:40:24.439Z,7.60
2018-01-25T15:42:51.972Z,7.50
2018-01-25T15:45:20.264Z,7.60
2018-01-25T15:47:47.798Z,7.50
2018-01-25T15:50:15.304Z,7.50
2018-01-25T15:52:42.830Z,7.50
2018-01-25T15:55:11.103Z,7.60
2018-01-25T15:57:39.412Z,7.60
2018-01-25T16:00:06.932Z,7.60
2018-01-25T16:02:35.223Z,7.50
2018-01-25T16:05:03.521Z,7.50
2018-01-25T16:07:31.023Z,7.50
2018-01-25T16:09:58.553Z,7.40
2018-01-25T16:12:26.056Z,7.40
2018-01-25T16:14:53.580Z,7.50
2018-01-25T16:17:21.083Z,7.50
2018-01-25T16:19:49.375Z,7.50
2018-01-25T16:22:17.634Z,7.50
2018-01-25T16:24:45.950Z,7.40
2018-01-25T16:27:13.452Z,7.40
2018-01-25T16:29:40.944Z,7.40
2018-01-25T16:32:09.234Z,7.30
2018-01-25T16:34:36.740Z,7.30
2018-01-25T16:37:05.770Z,7.20
2018-01-25T16:39:34.063Z,7.20
2018-01-25T16:42:01.562Z,7.20
2018-01-25T16:44:29.097Z,7.20
2018-01-25T16:46:56.595Z,7.20
2018-01-25T16:49:24.115Z,7.20
2018-01-25T16:51:51.610Z,7.20
2018-01-25T16:54:19.149Z,7.20
2018-01-25T16:56:46.655Z,7.20
2018-01-25T16:59:14.927Z,7.20
2018-01-25T17:01:43.219Z,7.20
2018-01-25T17:04:10.764Z,7.20
2018-01-25T17:06:39.037Z,7.20
2018-01-25T17:09:07.303Z,7.20
2018-01-25T17:11:34.844Z,7.20
2018-01-25T17:14:02.343Z,7.20
2018-01-25T17:16:30.608Z,7.10
2018-01-25T17:18:58.900Z,7.10
2018-01-25T17:21:27.168Z,7.00
2018-01-25T17:23:55.463Z,7.10
2018-01-25T17:26:22.967Z,7.10
2018-01-25T17:28:50.490Z,7.10
2018-01-25T17:31:18.024Z,7.00
2018-01-25T17:33:46.304Z,7.10
2018-01-25T17:36:14.599Z,7.10
2018-01-25T17:38:42.115Z,7.10
2018-01-25T17:41:09.647Z,7.30
2018-01-25T17:43:37.177Z,7.30
2018-01-25T17:46:04.704Z,7.40
2018-01-25T17:48:32.962Z,7.40
2018-01-25T17:51:00.488Z,7.40
2018-01-25T17:53:28.014Z,7.40
2018-01-25T17:55:55.561Z,7.50
2018-01-25T17:58:23.151Z,7.40
2018-01-25T18:00:50.684Z,7.40
2018-01-25T18:03:18.979Z,7.40
2018-01-25T18:05:46.494Z,7.40
2018-01-25T18:08:14.831Z,7.50
2018-01-25T18:10:42.479Z,7.50
2018-01-25T18:13:10.045Z,7.40
2018-01-25T18:15:37.556Z,7.40
2018-01-25T18:18:05.061Z,7.50
2018-01-25T18:20:32.602Z,7.50
2018-01-25T18:23:00.881Z,7.40
2018-01-25T18:25:28.494Z,7.40
2018-01-25T18:27:56.020Z,7.30
2018-01-25T18:30:23.560Z,7.50
2018-01-25T18:32:51.823Z,7.40
2018-01-25T18:35:20.087Z,7.40
2018-01-25T18:37:47.615Z,7.40
2018-01-25T18:40:15.143Z,7.50
2018-01-25T18:42:42.657Z,7.40
2018-01-25T18:45:10.187Z,7.40
2018-01-25T18:47:37.688Z,7.40
2018-01-25T18:50:06.012Z,7.30
2018-01-25T18:52:33.511Z,7.30
2018-01-25T18:55:01.126Z,7.40
2018-01-25T18:57:28.650Z,7.40
2018-01-25T18:59:56.917Z,7.50
2018-01-25T19:02:24.447Z,7.50
2018-01-25T19:04:51.949Z,7.40
2018-01-25T19:07:20.234Z,7.40
2018-01-25T19:09:48.504Z,7.40
2018-01-25T19:12:16.796Z,7.30
2018-01-25T19:14:44.299Z,7.30
2018-01-25T19:17:11.842Z,7.30
2018-01-25T19:19:39.347Z,7.30
2018-01-25T19:22:07.755Z,7.20
2018-01-25T19:24:36.435Z,7.20
2018-01-25T19:27:03.972Z,7.30
2018-01-25T19:29:32.265Z,7.40
2018-01-25T19:32:00.531Z,7.50
2018-01-25T19:34:33.439Z,7.40
2018-01-25T19:37:06.464Z,7.40
2018-01-25T19:39:36.672Z,7.40
2018-01-25T19:42:04.326Z,7.30
2018-01-25T19:44:32.957Z,7.30
2018-01-25T19:47:01.995Z,7.30
2018-01-25T19:49:29.512Z,7.30
2018-01-25T19:51:57.017Z,7.20
2018-01-25T19:54:24.547Z,7.20
2018-01-25T19:56:52.827Z,7.30
2018-01-25T19:59:21.130Z,7.30
2018-01-25T20:01:48.638Z,7.20
2018-01-25T20:04:16.165Z,7.20
2018-01-25T20:06:43.676Z,7.20
2018-01-25T20:09:11.973Z,7.10
2018-01-25T20:11:39.480Z,7.10
2018-01-25T20:14:07.002Z,7.10
2018-01-25T20:16:34.499Z,7.20
2018-01-25T20:19:02.021Z,7.20
2018-01-25T20:21:29.546Z,7.20
2018-01-25T20:23:57.812Z,7.10
2018-01-25T20:26:25.337Z,7.10
2018-01-25T20:28:52.840Z,7.10
2018-01-25T20:31:21.127Z,7.10
2018-01-25T20:33:49.399Z,7.20
2018-01-25T20:36:17.697Z,7.10
2018-01-25T20:38:45.227Z,7.10
2018-01-25T20:41:13.492Z,7.20
2018-01-25T20:43:41.029Z,7.20
2018-01-25T20:46:08.524Z,7.20
2018-01-25T20:48:36.816Z,7.20
2018-01-25T20:51:04.347Z,7.20
2018-01-25T20:53:31.874Z,7.30
2018-01-25T20:55:59.370Z,7.20
2018-01-25T20:58:27.681Z,7.20
2018-01-25T21:00:55.183Z,7.20
2018-01-25T21:03:22.695Z,7.10
2018-01-25T21:05:50.224Z,7.10
2018-01-25T21:08:18.494Z,7.20
2018-01-25T21:10:46.023Z,7.10
2018-01-25T21:13:13.525Z,7.10
2018-01-25T21:15:41.821Z,7.00
2018-01-25T21:18:09.319Z,7.00
2018-01-25T21:20:36.853Z,7.10
2018-01-25T21:23:04.351Z,7.10
2018-01-25T21:25:31.854Z,7.10
2018-01-25T21:27:59.382Z,7.10
2018-01-25T21:30:26.905Z,7.10
2018-01-25T21:32:54.440Z,7.10
2018-01-25T21:35:21.944Z,7.00
2018-01-25T21:37:49.458Z,7.00
2018-01-25T21:40:16.984Z,7.10
2018-01-25T21:42:45.250Z,7.10
2018-01-25T21:45:13.116Z,7.10
2018-01-25T21:47:40.619Z,7.00
2018-01-25T21:50:08.144Z,7.00
2018-01-25T21:52:36.418Z,7.10
2018-01-25T21:55:04.719Z,7.00
2018-01-25T21:57:32.224Z,7.00
2018-01-25T21:59:59.771Z,7.00
2018-01-25T22:02:27.276Z,7.00
2018-01-25T22:04:55.586Z,7.00
2018-01-25T22:07:23.094Z,6.90
2018-01-25T22:09:50.619Z,7.00
2018-01-25T22:12:18.146Z,7.00
2018-01-25T22:14:46.413Z,7.00
2018-01-25T22:17:14.744Z,7.00
2018-01-25T22:19:42.247Z,7.00
2018-01-25T22:22:10.512Z,7.00
2018-01-25T22:24:38.040Z,7.00
2018-01-25T22:27:05.544Z,7.00
2018-01-25T22:29:33.956Z,7.00
2018-01-25T22:32:01.456Z,7.00
2018-01-25T22:34:28.960Z,7.00
2018-01-25T22:36:56.487Z,7.00
2018-01-25T22:39:23.984Z,7.10
2018-01-25T22:41:51.516Z,7.10
2018-01-25T22:44:19.783Z,7.00
2018-01-25T22:46:47.311Z,7.00
2018-01-25T22:49:14.814Z,7.00
2018-01-25T22:51:43.102Z,7.00
2018-01-25T22:54:10.599Z,7.00
2018-01-25T22:56:38.130Z,7.10
2018-01-25T22:59:05.722Z,7.00
2018-01-25T23:01:33.270Z,7.00
2018-01-25T23:04:00.804Z,7.00
2018-01-25T23:06:28.303Z,7.00
2018-01-25T23:08:55.804Z,7.00
2018-01-25T23:11:24.101Z,7.10
2018-01-25T23:13:51.613Z,7.10
2018-01-25T23:16:19.143Z,7.00
2018-01-25T23:18:46.663Z,7.00
2018-01-25T23:21:14.957Z,7.10
2018-01-25T23:23:42.464Z,7.10
2018-01-25T23:26:10.006Z,7.10
2018-01-25T23:28:37.508Z,7.10
2018-01-25T23:31:05.773Z,7.00
2018-01-25T23:33:34.062Z,6.90
2018-01-25T23:36:02.325Z,6.90
2018-01-25T23:38:34.997Z,7.00
2018-01-25T23:41:02.502Z,6.90
2018-01-25T23:43:30.036Z,6.90
2018-01-25T23:45:58.315Z,7.00
2018-01-25T23:48:26.616Z,6.90
2018-01-25T23:50:54.151Z,6.90
2018-01-25T23:53:22.445Z,6.90
2018-01-25T23:55:49.983Z,6.90
2018-01-25T23:58:18.275Z,7.00
